[ EDKA 121750Z AUTO 22004KT //// ///////// 14/13 Q1012 ]
Windrichtung (graph.)
Inst: 250° 6.2 kt
2min: 251° 6.3 kt
10min: 253° 6 kt
Extrem: 232° – 279° 8.9 kt – 3.7 kt
Crosswind: -0.1 kt
Luftdruck (graph.)
QNH: 1013 hPa Temp: 14.2 °C
QNH: 29.91 inHg DewP: 12.0 °C
QFE: 990 hPa Hum: 86.3 %
QFE: 29.25 inHg